PWSweather.com
Personal Weather Stations
Station Observations
IVENETOL9
Brugine, BrugineIT 35020

BrugineBrugineIT 35020

Lat: 45.2975, Lon: 11.9962777

Elevation: 19

Station Type: Davis Vantage Pro2 Plus

http://www.meteobrugine.it/

Latest ConditionsUpdated 7:45:36 PM GMT+01:01 Tuesday, Nov 12, 2019
Currently Today's Max Today's Min Today's Average
Temperature 50.8°F10.4°C 53.7°F12.1°C 50.8°F10.4°C 52.2°F11.2°C
Dew Point 49.1°F9.5°C 51.4°F10.8°C 49.1°F9.5°C 50.1°F10.1°C
Winds 0.5 mph NE0.8 kmh NE 2.3 mph -3.7 kmh - - 0.5 mph 0.8 kmh
Wind Gusts 2.0 mph3.2 kmh 10.0 mph16.1 kmh - -
Humidity 94% 95% 88% 93%
Pressure 29.37 in994.6 mb 29.62 in1003.0 mb 29.37 in994.6 mb -
Precipitation - 0.58 in14.7 mm - -
Hour Temp Dew Point Humidity Winds Wind Gusts Pressure Precip Precip Rate Daily Precip Total
07:45 PM 50.8°F10.4°C 49.1°F9.5°C 94% 0.5 mph NE0.8 kmh NE 2.0 mph3.2 kmh 29.37 in994.6 mb - 0.03 in0.8 mm 0.58 in14.7 mm
07:30 PM 51.0°F10.6°C 49.3°F9.6°C 94% 0.3 mph NE0.5 kmh NE 2.0 mph3.2 kmh 29.38 in994.9 mb - 0.05 in1.3 mm 0.55 in14.0 mm
07:15 PM 51.3°F10.7°C 49.3°F9.6°C 93% 0.1 mph N0.2 kmh N 2.0 mph3.2 kmh 29.39 in995.3 mb - 0.02 in0.5 mm 0.51 in13.0 mm
07:00 PM 51.7°F10.9°C 49.5°F9.7°C 92% Calm Calm -- 29.39 in995.3 mb - 0.02 in0.5 mm 0.49 in12.4 mm
06:45 PM 52.3°F11.3°C 49.8°F9.9°C 91% Calm Calm -- 29.39 in995.3 mb - 0.01 in0.3 mm 0.47 in11.9 mm
06:30 PM 52.8°F11.6°C 49.9°F9.9°C 90% 2.3 mph ENE3.7 kmh ENE 3.0 mph4.8 kmh 29.40 in995.6 mb - 0.01 in0.3 mm 0.47 in11.9 mm
06:15 PM 52.9°F11.6°C 49.7°F9.8°C 89% 0.2 mph ENE0.3 kmh ENE 1.0 mph1.6 kmh 29.40 in995.6 mb - 0.00 in0.0 mm 0.46 in11.7 mm
06:00 PM 52.9°F11.6°C 49.4°F9.7°C 88% Calm Calm -- 29.41 in995.9 mb - 0.00 in0.0 mm 0.46 in11.7 mm
05:45 PM 52.9°F11.6°C 49.4°F9.7°C 88% Calm Calm -- 29.40 in995.6 mb - 0.00 in0.0 mm 0.46 in11.7 mm
05:30 PM 53.0°F11.7°C 49.5°F9.7°C 88% 0.1 mph E0.2 kmh E 1.0 mph1.6 kmh 29.40 in995.6 mb - 0.00 in0.0 mm 0.46 in11.7 mm
05:15 PM 53.1°F11.7°C 49.6°F9.8°C 88% Calm Calm -- 29.41 in995.9 mb - 0.00 in0.0 mm 0.46 in11.7 mm
05:00 PM 53.2°F11.8°C 49.7°F9.8°C 88% 0.1 mph NE0.2 kmh NE 1.0 mph1.6 kmh 29.41 in995.9 mb - 0.00 in0.0 mm 0.46 in11.7 mm
04:45 PM 53.3°F11.8°C 49.8°F9.9°C 88% 0.2 mph NE0.3 kmh NE 2.0 mph3.2 kmh 29.41 in995.9 mb - 0.00 in0.0 mm 0.46 in11.7 mm
04:30 PM 53.4°F11.9°C 50.0°F10.0°C 88% 0.2 mph ENE0.3 kmh ENE 1.0 mph1.6 kmh 29.41 in995.9 mb - 0.00 in0.0 mm 0.46 in11.7 mm
04:15 PM 53.6°F12.0°C 50.1°F10.1°C 88% 0.1 mph ENE0.2 kmh ENE -- 29.43 in996.6 mb - 0.00 in0.0 mm 0.46 in11.7 mm
04:00 PM 53.7°F12.1°C 50.2°F10.1°C 88% 0.8 mph ENE1.3 kmh ENE 1.0 mph1.6 kmh 29.44 in997.0 mb - 0.00 in0.0 mm 0.46 in11.7 mm
03:45 PM 53.7°F12.1°C 50.5°F10.3°C 89% 0.4 mph ENE0.6 kmh ENE 3.0 mph4.8 kmh 29.45 in997.3 mb - 0.00 in0.0 mm 0.46 in11.7 mm
03:30 PM 53.6°F12.0°C 50.7°F10.4°C 90% 0.6 mph ENE1.0 kmh ENE 3.0 mph4.8 kmh 29.45 in997.3 mb - 0.00 in0.0 mm 0.46 in11.7 mm
03:15 PM 53.6°F12.0°C 51.0°F10.6°C 91% 0.2 mph NE0.3 kmh NE 4.0 mph6.4 kmh 29.46 in997.6 mb - 0.00 in0.0 mm 0.46 in11.7 mm
03:00 PM 53.4°F11.9°C 51.2°F10.7°C 92% 0.2 mph ENE0.3 kmh ENE 3.0 mph4.8 kmh 29.46 in997.6 mb - 0.00 in0.0 mm 0.46 in11.7 mm
02:45 PM 53.3°F11.8°C 51.1°F10.6°C 92% Calm Calm -- 29.48 in998.3 mb - 0.00 in0.0 mm 0.46 in11.7 mm
02:30 PM 53.3°F11.8°C 51.3°F10.7°C 93% 0.6 mph ENE1.0 kmh ENE 3.0 mph4.8 kmh 29.49 in998.6 mb - 0.00 in0.0 mm 0.46 in11.7 mm
02:15 PM 53.1°F11.7°C 51.4°F10.8°C 94% 0.9 mph ENE1.4 kmh ENE 4.0 mph6.4 kmh 29.48 in998.3 mb - 0.00 in0.0 mm 0.46 in11.7 mm
02:00 PM 53.0°F11.7°C 51.3°F10.7°C 94% 0.4 mph NE0.6 kmh NE 3.0 mph4.8 kmh 29.49 in998.6 mb - 0.00 in0.0 mm 0.46 in11.7 mm
01:45 PM 52.6°F11.4°C 51.2°F10.7°C 95% 2.3 mph NE3.7 kmh NE 4.0 mph6.4 kmh 29.50 in999.0 mb - 0.00 in0.0 mm 0.46 in11.7 mm
01:30 PM 52.4°F11.3°C 51.0°F10.6°C 95% 2.0 mph ENE3.2 kmh ENE 10.0 mph16.1 kmh 29.50 in999.0 mb - 0.00 in0.0 mm 0.46 in11.7 mm
01:15 PM 52.3°F11.3°C 50.9°F10.5°C 95% 1.4 mph NE2.3 kmh NE 7.0 mph11.3 kmh 29.50 in999.0 mb - 0.00 in0.0 mm 0.46 in11.7 mm
01:00 PM 52.3°F11.3°C 50.9°F10.5°C 95% 0.5 mph NE0.8 kmh NE 1.0 mph1.6 kmh 29.52 in999.7 mb - 0.00 in0.0 mm 0.46 in11.7 mm
12:45 PM 51.9°F11.1°C 50.5°F10.3°C 95% 0.6 mph ENE1.0 kmh ENE 3.0 mph4.8 kmh 29.53 in1000.0 mb - 0.02 in0.5 mm 0.46 in11.7 mm
12:30 PM 51.7°F10.9°C 50.3°F10.2°C 95% 0.8 mph ENE1.3 kmh ENE 2.0 mph3.2 kmh 29.54 in1000.3 mb - 0.02 in0.5 mm 0.45 in11.4 mm
12:15 PM 51.6°F10.9°C 50.3°F10.2°C 95% 1.9 mph NE3.1 kmh NE 4.0 mph6.4 kmh 29.56 in1001.0 mb - 0.02 in0.5 mm 0.44 in11.2 mm
12:00 PM 51.6°F10.9°C 50.2°F10.1°C 95% 1.8 mph ENE2.9 kmh ENE 6.0 mph9.7 kmh 29.57 in1001.4 mb - 0.02 in0.5 mm 0.43 in10.9 mm
11:45 AM 51.4°F10.8°C 50.0°F10.0°C 95% 1.5 mph NE2.4 kmh NE 6.0 mph9.7 kmh 29.57 in1001.4 mb - 0.02 in0.5 mm 0.42 in10.7 mm
11:30 AM 51.3°F10.7°C 49.9°F9.9°C 95% 0.9 mph ENE1.4 kmh ENE 3.0 mph4.8 kmh 29.58 in1001.7 mb - 0.00 in0.0 mm 0.39 in9.9 mm
11:15 AM 51.3°F10.7°C 49.9°F9.9°C 95% 0.6 mph ENE1.0 kmh ENE 2.0 mph3.2 kmh 29.57 in1001.4 mb - 0.02 in0.5 mm 0.39 in9.9 mm
11:00 AM 51.2°F10.7°C 49.8°F9.9°C 95% 0.1 mph NE0.2 kmh NE 1.0 mph1.6 kmh 29.57 in1001.4 mb - 0.02 in0.5 mm 0.39 in9.9 mm
10:45 AM 51.3°F10.7°C 49.9°F9.9°C 95% Calm Calm -- 29.57 in1001.4 mb - 0.02 in0.5 mm 0.36 in9.1 mm
10:30 AM 51.5°F10.8°C 50.1°F10.1°C 95% 0.3 mph ENE0.5 kmh ENE 2.0 mph3.2 kmh 29.57 in1001.4 mb - 0.02 in0.5 mm 0.35 in8.9 mm
10:15 AM 51.5°F10.8°C 50.1°F10.1°C 95% 1.2 mph ENE1.9 kmh ENE 4.0 mph6.4 kmh 29.59 in1002.0 mb - 0.02 in0.5 mm 0.32 in8.1 mm
10:00 AM 51.5°F10.8°C 50.2°F10.1°C 95% 0.1 mph ENE0.2 kmh ENE 1.0 mph1.6 kmh 29.59 in1002.0 mb - 0.02 in0.5 mm 0.30 in7.6 mm
09:45 AM 51.6°F10.9°C 50.2°F10.1°C 95% Calm Calm -- 29.59 in1002.0 mb - 0.02 in0.5 mm 0.28 in7.1 mm
09:30 AM 51.5°F10.8°C 50.1°F10.1°C 95% 0.1 mph ENE0.2 kmh ENE -- 29.60 in1002.4 mb - 0.02 in0.5 mm 0.26 in6.6 mm
09:15 AM 51.3°F10.7°C 49.9°F9.9°C 95% 0.2 mph ENE0.3 kmh ENE -- 29.60 in1002.4 mb - 0.08 in2.0 mm 0.24 in6.1 mm
09:00 AM 51.2°F10.7°C 49.8°F9.9°C 95% Calm Calm -- 29.61 in1002.7 mb - 0.02 in0.5 mm 0.16 in4.1 mm
08:45 AM 51.2°F10.7°C 49.8°F9.9°C 95% 0.1 mph ENE0.2 kmh ENE 2.0 mph3.2 kmh 29.61 in1002.7 mb - 0.01 in0.3 mm 0.13 in3.3 mm
08:30 AM 51.0°F10.6°C 49.6°F9.8°C 95% 0.3 mph ENE0.5 kmh ENE 1.0 mph1.6 kmh 29.61 in1002.7 mb - 0.06 in1.5 mm 0.13 in3.3 mm
08:15 AM 51.0°F10.6°C 49.6°F9.8°C 95% Calm Calm 1.0 mph1.6 kmh 29.62 in1003.0 mb - 0.02 in0.5 mm 0.06 in1.5 mm
08:00 AM 51.0°F10.6°C 49.6°F9.8°C 95% Calm Calm -- 29.62 in1003.0 mb - 0.00 in0.0 mm 0.05 in1.3 mm
07:45 AM 50.9°F10.5°C 49.5°F9.7°C 95% Calm Calm -- 29.62 in1003.0 mb - 0.00 in0.0 mm 0.05 in1.3 mm